Time;durP1;ratioP1;P1;durP2;ratioP2;P2;SDS_P1;SDS_P2;PMS_P1;PMS_P2;Temp;Humidity;BMP_temperature;BMP_pressure;BME280_temperature;BME280_humidity;BME280_pressure;Samples;Min_cycle;Max_cycle;Signal;HPM_P1;HPM_P2
2022/11/14 00:00:34;;;;;;;20.45;11.13;;;8.30;99.90;;;;;;5037532;28;20032;-75
2022/11/14 00:03:01;;;;;;;20.60;10.40;;;8.20;99.90;;;;;;5034559;28;20064;-77
2022/11/14 00:05:29;;;;;;;19.70;10.32;;;8.20;99.90;;;;;;5040423;28;20029;-77
2022/11/14 00:07:58;;;;;;;16.98;10.50;;;8.20;99.90;;;;;;5028818;28;20057;-77
2022/11/14 00:10:24;;;;;;;23.50;11.65;;;8.10;99.90;;;;;;5028515;28;20390;-79
2022/11/14 00:12:52;;;;;;;18.90;10.40;;;8.20;99.90;;;;;;5021383;28;20058;-77
2022/11/14 00:15:20;;;;;;;19.75;11.18;;;8.10;99.90;;;;;;5027242;28;20167;-77
2022/11/14 00:17:46;;;;;;;21.75;11.32;;;8.10;99.90;;;;;;5021817;28;20141;-78
2022/11/14 00:20:15;;;;;;;23.10;11.40;;;8.10;99.90;;;;;;5027018;28;20112;-77
2022/11/14 00:22:41;;;;;;;21.08;10.82;;;8.10;99.90;;;;;;5031505;28;20021;-78
2022/11/14 00:25:12;;;;;;;17.73;11.05;;;8.00;99.90;;;;;;5031545;28;20055;-77
2022/11/14 00:27:38;;;;;;;19.80;12.30;;;8.00;99.90;;;;;;5032574;28;20025;-77
2022/11/14 00:30:06;;;;;;;20.73;11.85;;;8.00;99.90;;;;;;5024728;28;20614;-77
2022/11/14 00:32:32;;;;;;;25.73;12.20;;;8.00;99.90;;;;;;5032281;28;20035;-76
2022/11/14 00:34:57;;;;;;;23.08;12.13;;;7.90;99.90;;;;;;5029857;28;20017;-76
2022/11/14 00:37:23;;;;;;;21.88;12.70;;;7.90;99.90;;;;;;5029958;28;20029;-78
2022/11/14 00:39:48;;;;;;;23.85;12.20;;;7.90;99.90;;;;;;5023543;28;20076;-77
2022/11/14 00:42:14;;;;;;;22.42;12.48;;;7.80;99.90;;;;;;5028059;28;20025;-79
2022/11/14 00:44:44;;;;;;;26.83;13.40;;;7.80;99.90;;;;;;5029162;28;20361;-77
2022/11/14 00:47:12;;;;;;;22.23;12.40;;;7.70;99.90;;;;;;5032067;28;20062;-78
2022/11/14 00:49:38;;;;;;;22.73;12.73;;;7.80;99.90;;;;;;5032664;28;20359;-78
2022/11/14 00:52:06;;;;;;;25.40;12.13;;;7.70;99.90;;;;;;5039835;28;20021;-78
2022/11/14 00:54:31;;;;;;;25.73;12.32;;;7.60;99.90;;;;;;5038229;28;20064;-77
2022/11/14 00:56:57;;;;;;;25.83;13.20;;;7.60;99.90;;;;;;5042037;28;20025;-78
2022/11/14 00:59:22;;;;;;;23.83;13.02;;;7.60;99.90;;;;;;5034614;28;20371;-78
2022/11/14 01:01:48;;;;;;;25.95;13.73;;;7.60;99.90;;;;;;5025883;28;20022;-78
2022/11/14 01:04:14;;;;;;;26.30;13.43;;;7.50;99.90;;;;;;5032182;28;20424;-76
2022/11/14 01:06:42;;;;;;;25.25;12.77;;;7.50;99.90;;;;;;5031865;28;20875;-77
2022/11/14 01:09:07;;;;;;;30.63;13.95;;;7.50;99.90;;;;;;5028463;28;20457;-78
2022/11/14 01:11:33;;;;;;;27.58;13.50;;;7.50;99.90;;;;;;5034862;28;20021;-76
2022/11/14 01:14:01;;;;;;;22.83;13.52;;;7.40;99.90;;;;;;5037650;28;20104;-78
2022/11/14 01:16:26;;;;;;;22.20;12.98;;;7.40;99.90;;;;;;5050819;28;20034;-77
2022/11/14 01:18:52;;;;;;;25.40;13.52;;;7.40;99.90;;;;;;5031635;28;20021;-77
2022/11/14 01:21:18;;;;;;;25.88;13.75;;;7.40;99.90;;;;;;5034817;28;20033;-76
2022/11/14 01:23:44;;;;;;;26.98;13.77;;;7.40;99.90;;;;;;5029939;28;20049;-77
2022/11/14 01:26:12;;;;;;;25.10;13.43;;;7.40;99.90;;;;;;5026585;28;20116;-76
2022/11/14 01:28:38;;;;;;;30.52;14.25;;;7.30;99.90;;;;;;5027747;28;20394;-78
2022/11/14 01:31:17;;;;;;;25.70;13.80;;;7.30;99.90;;;;;;5031711;28;20915;-78
2022/11/14 01:33:43;;;;;;;25.75;13.55;;;7.30;99.90;;;;;;5027648;28;20124;-78
2022/11/14 01:36:13;;;;;;;25.45;13.10;;;7.20;99.90;;;;;;5035284;28;20424;-76
2022/11/14 01:38:40;;;;;;;26.80;13.93;;;7.20;99.90;;;;;;5038903;28;20033;-78
2022/11/14 01:41:06;;;;;;;28.48;14.23;;;7.20;99.90;;;;;;5034717;28;20029;-76
2022/11/14 01:43:38;;;;;;;28.05;13.25;;;7.20;99.90;;;;;;5036883;28;20109;-77
2022/11/14 01:46:11;;;;;;;25.27;13.32;;;7.10;99.90;;;;;;5032973;28;20021;-77
2022/11/14 01:48:54;;;;;;;27.52;13.15;;;7.20;99.90;;;;;;5032118;28;20033;-77
2022/11/14 01:51:32;;;;;;;28.08;12.85;;;7.10;99.90;;;;;;5038862;28;20034;-77
2022/11/14 01:54:02;;;;;;;25.75;12.80;;;7.10;99.90;;;;;;5030917;28;20406;-78
2022/11/14 01:56:39;;;;;;;24.00;13.13;;;7.10;99.90;;;;;;5032525;28;20025;-79
2022/11/14 01:59:11;;;;;;;24.27;13.02;;;7.00;99.90;;;;;;5028641;28;20112;-77
2022/11/14 02:01:45;;;;;;;30.23;14.07;;;7.00;99.90;;;;;;5031459;28;20036;-78
2022/11/14 02:04:16;;;;;;;29.40;13.25;;;7.00;99.90;;;;;;5040067;28;20029;-78
2022/11/14 02:06:43;;;;;;;29.00;13.25;;;7.00;99.90;;;;;;5037442;28;20023;-78
2022/11/14 02:09:09;;;;;;;29.95;13.77;;;7.00;99.90;;;;;;5031089;28;20553;-76
2022/11/14 02:11:41;;;;;;;28.63;14.27;;;7.00;99.90;;;;;;5030928;28;20036;-75
2022/11/14 02:14:10;;;;;;;27.77;14.00;;;6.90;99.90;;;;;;5030882;28;20037;-77
2022/11/14 02:16:43;;;;;;;30.73;13.43;;;6.90;99.90;;;;;;5030519;28;20051;-77
2022/11/14 02:19:12;;;;;;;34.83;14.27;;;6.90;99.90;;;;;;5026842;28;20041;-76
2022/11/14 02:21:40;;;;;;;31.25;14.15;;;6.90;99.90;;;;;;5026905;28;20028;-77
2022/11/14 02:24:13;;;;;;;31.60;14.90;;;6.90;99.90;;;;;;5037518;28;20091;-76
2022/11/14 02:26:40;;;;;;;31.90;13.85;;;6.80;99.90;;;;;;5039475;28;20144;-77
2022/11/14 02:29:09;;;;;;;32.38;14.85;;;6.70;99.90;;;;;;5034439;28;20059;-77
2022/11/14 02:31:35;;;;;;;27.40;14.23;;;6.70;99.90;;;;;;5034828;28;20125;-76
2022/11/14 02:34:01;;;;;;;27.80;14.00;;;6.70;99.90;;;;;;5034388;28;20116;-77
2022/11/14 02:36:29;;;;;;;28.50;14.35;;;6.70;99.90;;;;;;5030636;28;20392;-77
2022/11/14 02:38:55;;;;;;;28.92;14.55;;;6.60;99.90;;;;;;5031111;28;20720;-76
2022/11/14 02:41:20;;;;;;;26.23;13.43;;;6.60;99.90;;;;;;5031143;28;20067;-77
2022/11/14 02:43:46;;;;;;;29.17;14.63;;;6.50;99.90;;;;;;5026855;28;20096;-76
2022/11/14 02:46:14;;;;;;;27.60;14.43;;;6.50;99.90;;;;;;5029489;28;20107;-77
2022/11/14 02:48:39;;;;;;;35.67;15.88;;;6.50;99.90;;;;;;5034656;28;20094;-77
2022/11/14 02:51:08;;;;;;;31.17;14.50;;;6.40;99.90;;;;;;5031611;28;20033;-74
2022/11/14 02:53:33;;;;;;;31.08;14.82;;;6.40;99.90;;;;;;5037181;28;20048;-76
2022/11/14 02:55:59;;;;;;;30.65;15.40;;;6.40;99.90;;;;;;5039613;28;20029;-77
2022/11/14 02:58:28;;;;;;;28.75;13.77;;;6.40;99.90;;;;;;5030017;28;20104;-78
2022/11/14 03:00:55;;;;;;;28.95;15.05;;;6.30;99.90;;;;;;5034324;28;20071;-76
2022/11/14 03:03:21;;;;;;;31.02;15.07;;;6.30;99.90;;;;;;5027489;28;20087;-76
2022/11/14 03:05:47;;;;;;;29.13;14.55;;;6.30;99.90;;;;;;5028849;28;20607;-76
2022/11/14 03:08:12;;;;;;;31.80;14.05;;;6.30;99.90;;;;;;5024661;28;20030;-78
2022/11/14 03:10:38;;;;;;;27.60;13.80;;;6.30;99.90;;;;;;5025117;28;20021;-77
2022/11/14 03:13:03;;;;;;;31.50;14.63;;;6.20;99.90;;;;;;5033532;28;20030;-77
2022/11/14 03:15:29;;;;;;;29.13;14.18;;;6.20;99.90;;;;;;5029985;28;20029;-77
2022/11/14 03:17:55;;;;;;;30.92;15.18;;;6.10;99.90;;;;;;5029700;28;20022;-77
2022/11/14 03:20:20;;;;;;;29.55;14.45;;;6.20;99.90;;;;;;5032172;28;20029;-76
2022/11/14 03:22:46;;;;;;;32.90;15.57;;;6.20;99.90;;;;;;5031246;28;20030;-76
2022/11/14 03:25:11;;;;;;;27.13;14.15;;;6.10;99.90;;;;;;5031337;28;20038;-77
2022/11/14 03:27:37;;;;;;;31.08;14.95;;;6.10;99.90;;;;;;5036368;28;20025;-77
2022/11/14 03:30:03;;;;;;;35.97;14.70;;;6.10;99.90;;;;;;5030761;28;20129;-77
2022/11/14 03:32:31;;;;;;;28.00;14.25;;;6.10;99.90;;;;;;5027090;28;20092;-77
2022/11/14 03:34:57;;;;;;;33.13;15.13;;;6.00;99.90;;;;;;5031815;28;20029;-76
2022/11/14 03:37:25;;;;;;;28.45;14.27;;;6.00;99.90;;;;;;5029153;28;20399;-77
2022/11/14 03:39:51;;;;;;;30.98;14.52;;;6.00;99.90;;;;;;5034415;28;20077;-77
2022/11/14 03:42:16;;;;;;;32.40;14.50;;;6.00;99.90;;;;;;5022023;28;20029;-77
2022/11/14 03:44:42;;;;;;;31.60;15.15;;;6.00;99.90;;;;;;5031955;28;20029;-76
2022/11/14 03:47:10;;;;;;;28.35;14.85;;;5.90;99.90;;;;;;5031295;28;20031;-77
2022/11/14 03:49:35;;;;;;;34.10;15.55;;;5.90;99.90;;;;;;5034826;28;20472;-76
2022/11/14 03:52:03;;;;;;;30.15;15.38;;;5.90;99.90;;;;;;5033433;28;20025;-77
2022/11/14 03:54:29;;;;;;;31.42;15.68;;;5.90;99.90;;;;;;5030280;28;20489;-77
2022/11/14 03:56:54;;;;;;;33.33;14.45;;;5.90;99.90;;;;;;5032867;28;20037;-74
2022/11/14 03:59:23;;;;;;;29.95;15.48;;;5.90;99.90;;;;;;5030606;28;20041;-75
2022/11/14 04:01:48;;;;;;;31.70;14.48;;;5.90;99.90;;;;;;5032732;28;20025;-78
2022/11/14 04:04:14;;;;;;;29.52;14.65;;;5.90;99.90;;;;;;5031001;28;20022;-77
2022/11/14 04:06:40;;;;;;;29.48;13.30;;;5.90;99.90;;;;;;5024979;28;20029;-75
2022/11/14 04:09:06;;;;;;;29.15;14.00;;;5.80;99.90;;;;;;5030410;28;20022;-77
2022/11/14 04:11:31;;;;;;;30.70;15.07;;;5.80;99.90;;;;;;5033260;28;20152;-76
2022/11/14 04:13:57;;;;;;;29.33;14.52;;;5.80;99.90;;;;;;5034467;28;20424;-76
2022/11/14 04:16:23;;;;;;;28.40;13.63;;;5.90;99.90;;;;;;5038406;28;20373;-77
2022/11/14 04:18:48;;;;;;;31.88;15.02;;;5.80;99.90;;;;;;5037504;28;20061;-77
2022/11/14 04:21:14;;;;;;;30.35;14.38;;;5.80;99.90;;;;;;5037815;28;20419;-77
2022/11/14 04:23:39;;;;;;;31.88;15.48;;;5.80;99.90;;;;;;5038137;28;20034;-77
2022/11/14 04:26:05;;;;;;;25.20;13.48;;;5.80;99.90;;;;;;5035348;28;20022;-78
2022/11/14 04:28:33;;;;;;;29.63;13.90;;;5.80;99.90;;;;;;5038703;28;20018;-76
2022/11/14 04:31:01;;;;;;;31.50;14.60;;;5.70;99.90;;;;;;5032490;28;20029;-76
2022/11/14 04:33:27;;;;;;;32.72;14.60;;;5.70;99.90;;;;;;5031846;28;20037;-76
2022/11/14 04:35:53;;;;;;;33.65;15.20;;;5.70;99.90;;;;;;5031425;28;20033;-75
2022/11/14 04:38:18;;;;;;;32.45;14.48;;;5.60;99.90;;;;;;5038595;28;20107;-77
2022/11/14 04:40:51;;;;;;;36.90;15.55;;;5.60;99.90;;;;;;5033447;28;20021;-76
2022/11/14 04:43:18;;;;;;;26.98;13.68;;;5.60;99.90;;;;;;5050052;28;20116;-77
2022/11/14 04:45:44;;;;;;;34.80;15.00;;;5.60;99.90;;;;;;5044548;28;20411;-77
2022/11/14 04:48:12;;;;;;;31.90;15.20;;;5.60;99.90;;;;;;5029791;28;20064;-77
2022/11/14 04:50:38;;;;;;;33.45;14.73;;;5.60;99.90;;;;;;5036116;28;20435;-76
2022/11/14 04:53:06;;;;;;;24.52;13.20;;;5.70;99.90;;;;;;5034622;28;20112;-77
2022/11/14 04:55:32;;;;;;;30.42;14.15;;;5.60;99.90;;;;;;5031518;28;20035;-77
2022/11/14 04:57:58;;;;;;;32.00;15.25;;;5.60;99.90;;;;;;5029166;28;20034;-76
2022/11/14 05:00:24;;;;;;;32.17;14.93;;;5.60;99.90;;;;;;5034242;28;20025;-76
2022/11/14 05:02:50;;;;;;;32.63;14.57;;;5.60;99.90;;;;;;5034834;28;20116;-77
2022/11/14 05:05:20;;;;;;;30.13;14.18;;;5.60;99.90;;;;;;5038264;28;20077;-76
2022/11/14 05:07:48;;;;;;;34.10;15.15;;;5.60;99.90;;;;;;5038620;28;20021;-77
2022/11/14 05:10:14;;;;;;;29.75;14.77;;;5.60;99.90;;;;;;5048275;28;20100;-77
2022/11/14 05:12:42;;;;;;;31.75;14.48;;;5.50;99.90;;;;;;5027239;28;20164;-77
2022/11/14 05:15:08;;;;;;;32.15;14.05;;;5.50;99.90;;;;;;5035253;28;20021;-75
2022/11/14 05:17:35;;;;;;;30.25;14.23;;;5.50;99.90;;;;;;5035345;28;20498;-77
2022/11/14 05:20:01;;;;;;;32.80;14.52;;;5.50;99.90;;;;;;5027824;28;20044;-77
2022/11/14 05:22:29;;;;;;;31.40;15.38;;;5.50;99.90;;;;;;5027972;28;20033;-77
2022/11/14 05:24:57;;;;;;;30.95;14.60;;;5.50;99.90;;;;;;5033144;28;20051;-77
2022/11/14 05:27:28;;;;;;;28.88;13.88;;;5.50;99.90;;;;;;5033587;28;20022;-75
2022/11/14 05:29:55;;;;;;;28.83;14.77;;;5.50;99.90;;;;;;5047978;28;20061;-77
2022/11/14 05:32:21;;;;;;;31.27;13.93;;;5.50;99.90;;;;;;5039524;28;20033;-76
2022/11/14 05:34:47;;;;;;;29.67;14.02;;;5.50;99.90;;;;;;5046803;28;20028;-75
2022/11/14 05:37:15;;;;;;;34.58;14.60;;;5.50;99.90;;;;;;5039713;28;20045;-75
2022/11/14 05:39:43;;;;;;;31.45;13.80;;;5.40;99.90;;;;;;5039197;28;20044;-76
2022/11/14 05:42:11;;;;;;;34.13;14.77;;;5.40;99.90;;;;;;5025572;28;20068;-76
2022/11/14 05:44:39;;;;;;;37.20;14.73;;;5.40;99.90;;;;;;5028696;28;20476;-77
2022/11/14 05:47:04;;;;;;;32.33;15.30;;;5.40;99.90;;;;;;5030763;28;20026;-76
2022/11/14 05:49:35;;;;;;;32.75;14.02;;;5.40;99.90;;;;;;5028541;28;20026;-77
2022/11/14 05:52:02;;;;;;;29.67;13.85;;;5.40;99.90;;;;;;5038210;28;20118;-75
2022/11/14 05:54:30;;;;;;;40.80;15.77;;;5.40;99.90;;;;;;5032135;28;20029;-76
2022/11/14 05:56:56;;;;;;;29.08;13.45;;;5.40;99.90;;;;;;5044262;28;20037;-73
2022/11/14 05:59:22;;;;;;;34.10;15.35;;;5.40;99.90;;;;;;5041102;28;20033;-75
2022/11/14 06:01:47;;;;;;;30.45;13.90;;;5.40;99.90;;;;;;5038395;28;20021;-74
2022/11/14 06:04:16;;;;;;;29.48;14.32;;;5.40;99.90;;;;;;5032472;28;20038;-77
2022/11/14 06:06:41;;;;;;;31.17;14.10;;;5.30;99.90;;;;;;5030308;28;20032;-73
2022/11/14 06:09:10;;;;;;;30.27;14.73;;;5.30;99.90;;;;;;5037861;28;20037;-76
2022/11/14 06:11:35;;;;;;;30.83;13.73;;;5.30;99.90;;;;;;5027448;28;20038;-74
2022/11/14 06:14:02;;;;;;;29.42;13.85;;;5.30;99.90;;;;;;5031994;28;20026;-75
2022/11/14 06:16:30;;;;;;;28.98;14.80;;;5.30;99.90;;;;;;5033244;28;20029;-75
2022/11/14 06:18:56;;;;;;;31.73;14.23;;;5.30;99.90;;;;;;5037205;28;20803;-74
2022/11/14 06:21:23;;;;;;;32.15;14.55;;;5.30;99.90;;;;;;5034340;28;20136;-73
2022/11/14 06:23:50;;;;;;;30.77;13.90;;;5.30;99.90;;;;;;5046520;28;20112;-74
2022/11/14 06:26:22;;;;;;;30.77;14.38;;;5.30;99.90;;;;;;5032719;28;20033;-74
2022/11/14 06:28:54;;;;;;;34.67;14.43;;;5.30;99.90;;;;;;5031220;28;20026;-74
2022/11/14 06:31:20;;;;;;;36.75;15.10;;;5.30;99.90;;;;;;5032483;28;20476;-74
2022/11/14 06:33:47;;;;;;;30.13;14.23;;;5.20;99.90;;;;;;5031269;28;20109;-73
2022/11/14 06:36:13;;;;;;;33.13;14.32;;;5.20;99.90;;;;;;5025322;28;20380;-75
2022/11/14 06:38:40;;;;;;;33.20;14.23;;;5.10;99.90;;;;;;5028448;28;20030;-75
2022/11/14 06:41:11;;;;;;;30.95;14.15;;;5.10;99.90;;;;;;5033833;28;20044;-75
2022/11/14 06:43:42;;;;;;;33.38;15.27;;;5.10;99.90;;;;;;5035941;28;20025;-71
2022/11/14 06:46:10;;;;;;;33.92;14.50;;;5.10;99.90;;;;;;5035582;28;20017;-72
2022/11/14 06:48:35;;;;;;;31.17;15.07;;;5.10;99.90;;;;;;5035204;28;20035;-76
2022/11/14 06:51:04;;;;;;;27.60;14.15;;;5.10;99.90;;;;;;5041006;28;20029;-74
2022/11/14 06:53:36;;;;;;;29.48;15.00;;;5.10;99.90;;;;;;5032493;28;20127;-75
2022/11/14 06:56:06;;;;;;;;;;;5.10;99.90;;;;;;5024636;28;20041;-74
2022/11/14 06:58:34;;;;;;;29.92;14.23;;;5.10;99.90;;;;;;5022490;28;19984;-75
2022/11/14 07:01:17;;;;;;;32.22;14.30;;;5.00;99.90;;;;;;5026403;28;20083;-76
2022/11/14 07:03:43;;;;;;;32.53;15.73;;;5.10;99.90;;;;;;5028904;28;20028;-76
2022/11/14 07:06:14;;;;;;;33.05;15.32;;;5.10;99.90;;;;;;5036373;28;20049;-76
2022/11/14 07:08:40;;;;;;;33.92;15.18;;;5.10;99.90;;;;;;5038367;28;20029;-75
2022/11/14 07:11:11;;;;;;;33.53;14.70;;;5.20;99.90;;;;;;5043985;28;20040;-74
2022/11/14 07:13:39;;;;;;;35.88;14.70;;;5.30;99.90;;;;;;5041590;28;20133;-74
2022/11/14 07:16:07;;;;;;;33.67;14.98;;;5.20;99.90;;;;;;5036844;28;20430;-74
2022/11/14 07:18:33;;;;;;;36.25;15.32;;;5.30;99.90;;;;;;5032316;28;20120;-74
2022/11/14 07:21:03;;;;;;;32.35;14.93;;;5.40;99.90;;;;;;5029756;28;20152;-75
2022/11/14 07:23:31;;;;;;;33.17;15.18;;;5.50;99.90;;;;;;5028226;28;20123;-75
2022/11/14 07:26:08;;;;;;;33.85;14.70;;;5.50;99.90;;;;;;5034359;28;20069;-73
2022/11/14 07:28:35;;;;;;;32.13;14.98;;;5.50;99.90;;;;;;5027142;28;20025;-75
2022/11/14 07:31:05;;;;;;;34.80;14.82;;;5.50;99.90;;;;;;5031339;28;20040;-74
2022/11/14 07:33:31;;;;;;;33.67;14.98;;;5.60;99.90;;;;;;5038473;28;20099;-74
2022/11/14 07:35:57;;;;;;;35.05;15.48;;;5.60;99.90;;;;;;5042047;28;20521;-76
2022/11/14 07:38:23;;;;;;;28.70;14.68;;;5.70;99.90;;;;;;5038748;28;20029;-73
2022/11/14 07:40:59;;;;;;;33.72;16.05;;;5.70;99.90;;;;;;5035542;28;20022;-73
2022/11/14 07:43:26;;;;;;;35.90;15.68;;;5.70;99.90;;;;;;5028660;28;20029;-70
2022/11/14 07:45:51;;;;;;;39.58;15.32;;;5.80;99.90;;;;;;5028834;28;20117;-72
2022/11/14 07:48:18;;;;;;;32.13;14.20;;;5.80;99.90;;;;;;5025238;28;20630;-74
2022/11/14 07:50:44;;;;;;;39.92;15.60;;;5.90;99.90;;;;;;5023897;28;20032;-75
2022/11/14 07:53:12;;;;;;;32.40;13.77;;;5.90;99.90;;;;;;5034853;28;20032;-74
2022/11/14 07:55:40;;;;;;;30.70;15.13;;;6.00;99.90;;;;;;5038363;28;20032;-75
2022/11/14 07:58:06;;;;;;;33.30;15.32;;;6.00;99.90;;;;;;5039719;28;20029;-74
2022/11/14 08:00:32;;;;;;;36.28;14.48;;;6.10;99.90;;;;;;5048361;28;20100;-72
2022/11/14 08:02:57;;;;;;;36.13;14.98;;;6.00;99.90;;;;;;5035420;28;20040;-73
2022/11/14 08:05:23;;;;;;;30.88;15.05;;;6.10;99.90;;;;;;5035379;28;20025;-74
2022/11/14 08:07:52;;;;;;;34.42;14.27;;;6.10;99.90;;;;;;5035020;28;20032;-79
2022/11/14 08:10:20;;;;;;;33.13;14.32;;;6.10;99.90;;;;;;5028683;28;20814;-74
2022/11/14 08:12:57;;;;;;;27.80;13.13;;;6.10;99.90;;;;;;5030063;28;20018;-75
2022/11/14 08:15:23;;;;;;;36.85;15.18;;;6.20;99.90;;;;;;5024294;28;20365;-75
2022/11/14 08:17:49;;;;;;;29.80;14.85;;;6.20;99.90;;;;;;5030664;28;20041;-71
2022/11/14 08:20:14;;;;;;;28.98;14.85;;;6.20;99.90;;;;;;5029352;28;20032;-74
2022/11/14 08:22:43;;;;;;;32.58;14.90;;;6.20;99.90;;;;;;5037400;28;20625;-77
2022/11/14 08:25:11;;;;;;;31.52;14.07;;;6.30;99.90;;;;;;5038044;28;20033;-74
2022/11/14 08:27:39;;;;;;;29.80;14.10;;;6.40;99.90;;;;;;5031692;28;20112;-74
2022/11/14 08:30:05;;;;;;;30.10;14.82;;;6.40;99.90;;;;;;5031049;28;20018;-73
2022/11/14 08:32:31;;;;;;;30.75;15.02;;;6.40;99.90;;;;;;5031957;28;20077;-72
2022/11/14 08:34:56;;;;;;;28.58;14.55;;;6.40;99.90;;;;;;5029686;28;20661;-74
2022/11/14 08:37:22;;;;;;;29.15;14.52;;;6.50;99.90;;;;;;5026301;28;20033;-72
2022/11/14 08:39:49;;;;;;;35.05;14.55;;;6.50;99.90;;;;;;5022958;28;20525;-73
2022/11/14 08:42:16;;;;;;;28.08;14.57;;;6.60;99.90;;;;;;5028113;28;20105;-73
2022/11/14 08:44:44;;;;;;;32.90;14.35;;;6.70;99.90;;;;;;5026175;28;20368;-75
2022/11/14 08:47:09;;;;;;;29.40;13.27;;;6.80;99.90;;;;;;5031455;28;20405;-75
2022/11/14 08:49:35;;;;;;;28.23;14.88;;;6.80;99.90;;;;;;5033330;28;20089;-75
2022/11/14 08:52:01;;;;;;;28.42;14.38;;;6.90;99.90;;;;;;5029754;28;20037;-76
2022/11/14 08:54:26;;;;;;;25.10;13.27;;;7.00;99.90;;;;;;5028052;28;20115;-74
2022/11/14 08:56:52;;;;;;;27.23;13.68;;;7.10;99.90;;;;;;5027061;28;20034;-74
2022/11/14 08:59:18;;;;;;;26.52;14.07;;;7.20;99.90;;;;;;5032023;28;20040;-75
2022/11/14 09:01:43;;;;;;;24.17;13.43;;;7.30;99.90;;;;;;5030057;28;20024;-74
2022/11/14 09:04:09;;;;;;;27.60;13.52;;;7.30;99.90;;;;;;5027292;28;20025;-74
2022/11/14 09:06:34;;;;;;;30.88;14.20;;;7.40;99.90;;;;;;5035679;28;20017;-73
2022/11/14 09:09:00;;;;;;;27.15;12.23;;;7.50;99.90;;;;;;5040906;28;20033;-74
2022/11/14 09:11:26;;;;;;;25.50;13.68;;;7.60;99.90;;;;;;5031007;28;20115;-77
2022/11/14 09:13:51;;;;;;;25.60;12.95;;;7.70;99.90;;;;;;5038517;28;20056;-73
2022/11/14 09:16:22;;;;;;;26.48;13.90;;;7.90;99.90;;;;;;5039285;28;20095;-74
2022/11/14 09:18:47;;;;;;;26.05;13.73;;;8.00;99.90;;;;;;5035469;28;20034;-74
2022/11/14 09:21:13;;;;;;;26.42;14.07;;;8.10;99.90;;;;;;5031148;28;20116;-76
2022/11/14 09:23:41;;;;;;;23.17;12.48;;;8.20;99.90;;;;;;5032227;28;20049;-75
2022/11/14 09:26:08;;;;;;;22.42;12.30;;;8.30;99.90;;;;;;5031191;28;20584;-73
2022/11/14 09:28:34;;;;;;;23.75;13.25;;;8.40;99.90;;;;;;5031626;28;20363;-77
2022/11/14 09:31:05;;;;;;;23.50;12.52;;;8.50;99.90;;;;;;5040291;28;20150;-74
2022/11/14 09:33:31;;;;;;;26.95;13.45;;;8.70;99.90;;;;;;5045328;28;20376;-75
2022/11/14 09:36:02;;;;;;;22.33;12.38;;;8.80;99.90;;;;;;5023165;28;20030;-74
2022/11/14 09:38:30;;;;;;;23.67;12.55;;;9.00;99.90;;;;;;5031904;28;20047;-74
2022/11/14 09:41:02;;;;;;;25.45;11.73;;;9.20;99.90;;;;;;5036969;28;20133;-75
2022/11/14 09:43:33;;;;;;;24.20;12.18;;;9.30;99.90;;;;;;5036835;28;20014;-77
2022/11/14 09:46:01;;;;;;;23.60;12.30;;;9.50;99.90;;;;;;5032464;28;20025;-75
2022/11/14 09:48:30;;;;;;;27.27;13.23;;;9.60;99.90;;;;;;5027419;28;20036;-77
2022/11/14 09:51:19;;;;;;;23.08;11.75;;;9.70;99.90;;;;;;5031534;28;20097;-77
2022/11/14 09:54:21;;;;;;;23.73;13.82;;;9.90;99.90;;;;;;5034001;28;20025;-72
2022/11/14 09:56:47;;;;;;;26.23;12.25;;;10.10;99.90;;;;;;5035979;28;20462;-75
2022/11/14 09:59:16;;;;;;;22.65;13.07;;;10.10;99.90;;;;;;5037956;28;20037;-77
2022/11/14 10:01:58;;;;;;;24.08;12.38;;;10.40;99.90;;;;;;5032644;28;20036;-74
2022/11/14 10:04:53;;;;;;;27.00;12.65;;;10.40;99.90;;;;;;5039505;28;20091;-76
2022/11/14 10:07:56;;;;;;;22.63;12.60;;;10.60;99.90;;;;;;5038796;28;20065;-75
2022/11/14 10:10:52;;;;;;;27.33;13.63;;;10.90;99.90;;;;;;5027136;28;20030;-73
2022/11/14 10:13:48;;;;;;;22.20;13.27;;;11.20;99.90;;;;;;5027907;28;20045;-74
2022/11/14 10:16:29;;;;;;;26.35;14.15;;;11.30;99.90;;;;;;5031327;28;20594;-75
2022/11/14 10:19:08;;;;;;;26.52;13.35;;;11.40;99.90;;;;;;5033138;28;20044;-73
2022/11/14 10:22:04;;;;;;;26.95;12.70;;;11.40;99.90;;;;;;5037767;28;20075;-74
2022/11/14 10:24:37;;;;;;;23.95;12.75;;;11.80;99.90;;;;;;5030407;28;20025;-76
2022/11/14 10:27:09;;;;;;;24.85;13.10;;;11.90;99.90;;;;;;5025859;28;20036;-75
2022/11/14 10:29:59;;;;;;;27.15;12.38;;;11.90;99.90;;;;;;5032495;28;20048;-74
2022/11/14 10:32:46;;;;;;;23.92;12.55;;;12.30;99.90;;;;;;5039338;28;20092;-75
2022/11/14 10:35:28;;;;;;;21.90;12.48;;;12.60;99.90;;;;;;5031666;28;20029;-75
2022/11/14 10:38:32;;;;;;;23.13;12.30;;;12.80;99.90;;;;;;5028603;28;20040;-75
2022/11/14 10:41:01;;;;;;;21.90;12.55;;;12.90;99.60;;;;;;5022244;28;20034;-77
2022/11/14 10:43:42;;;;;;;24.80;12.48;;;13.20;99.50;;;;;;5033293;28;20029;-76
2022/11/14 10:46:25;;;;;;;25.27;13.27;;;13.20;98.60;;;;;;5027469;28;20026;-76
2022/11/14 10:48:53;;;;;;;22.38;12.98;;;13.00;98.80;;;;;;5031148;28;20026;-75
2022/11/14 10:51:42;;;;;;;23.13;12.82;;;12.60;99.50;;;;;;5045857;28;20041;-75
2022/11/14 10:54:32;;;;;;;27.63;14.00;;;12.40;99.90;;;;;;5025961;28;20029;-76
2022/11/14 10:56:58;;;;;;;23.52;13.38;;;12.20;99.90;;;;;;5031869;28;20153;-76
2022/11/14 10:59:23;;;;;;;27.83;13.63;;;12.10;99.90;;;;;;5033202;28;20025;-75
2022/11/14 11:01:49;;;;;;;24.10;14.63;;;11.90;99.90;;;;;;5036455;28;20052;-78
2022/11/14 11:04:35;;;;;;;24.23;13.70;;;11.90;99.90;;;;;;5030761;28;20041;-77
2022/11/14 11:07:07;;;;;;;24.77;13.00;;;11.80;99.90;;;;;;5027191;28;20123;-74
2022/11/14 11:12:44;;;;;;;25.70;13.25;;;11.70;99.90;;;;;;5029064;28;21460;-75
2022/11/14 11:15:15;;;;;;;24.65;14.10;;;11.70;99.90;;;;;;5028098;28;20029;-77
2022/11/14 11:17:54;;;;;;;29.83;13.90;;;11.60;99.90;;;;;;5030487;28;20036;-75
2022/11/14 11:20:25;;;;;;;25.42;13.45;;;11.70;99.90;;;;;;5029037;28;20052;-77
2022/11/14 11:23:11;;;;;;;28.83;14.13;;;11.70;99.90;;;;;;5033699;28;20064;-77
2022/11/14 11:25:39;;;;;;;29.55;14.35;;;11.60;99.90;;;;;;5030011;28;20037;-71
2022/11/14 11:28:18;;;;;;;30.40;15.30;;;11.40;99.90;;;;;;5031295;28;20030;-73
2022/11/14 11:30:56;;;;;;;29.13;13.90;;;11.40;99.90;;;;;;5030802;28;20919;-76
2022/11/14 11:33:28;;;;;;;30.63;13.95;;;11.40;99.90;;;;;;5033803;28;20017;-74
2022/11/14 11:36:02;;;;;;;26.20;12.80;;;11.20;99.90;;;;;;5021582;28;20030;-76
2022/11/14 11:38:30;;;;;;;23.63;12.57;;;11.10;99.90;;;;;;5026345;28;20214;-72
2022/11/14 11:41:24;;;;;;;25.98;13.00;;;11.10;99.90;;;;;;5029327;28;20513;-73
2022/11/14 11:44:04;;;;;;;21.63;11.93;;;11.10;99.90;;;;;;5030011;28;20107;-76
2022/11/14 11:46:49;;;;;;;19.30;10.18;;;10.90;99.90;;;;;;5041837;28;20447;-74
2022/11/14 11:49:33;;;;;;;19.45;11.15;;;10.80;99.90;;;;;;5028231;28;20087;-75
2022/11/14 11:52:09;;;;;;;18.95;9.85;;;10.90;99.90;;;;;;5034152;28;20115;-73
2022/11/14 11:55:14;;;;;;;15.57;8.52;;;10.80;99.90;;;;;;5029355;28;20026;-75
2022/11/14 11:57:50;;;;;;;15.18;8.27;;;10.80;99.90;;;;;;5028732;28;20037;-76
2022/11/14 12:00:21;;;;;;;14.45;7.55;;;10.90;99.90;;;;;;5026556;28;20056;-77
2022/11/14 12:02:49;;;;;;;14.57;8.32;;;10.90;99.90;;;;;;5028844;28;20033;-75
2022/11/14 12:05:16;;;;;;;11.55;7.35;;;11.10;99.90;;;;;;5030347;28;20037;-76
2022/11/14 12:08:03;;;;;;;13.48;7.53;;;11.50;99.90;;;;;;5026898;28;20022;-74
2022/11/14 12:10:32;;;;;;;12.98;7.25;;;11.80;99.90;;;;;;5028333;28;20342;-74
2022/11/14 12:13:25;;;;;;;12.57;6.90;;;11.70;99.90;;;;;;5031040;28;20017;-74
2022/11/14 12:15:59;;;;;;;12.40;7.20;;;11.60;99.90;;;;;;5021823;28;20030;-75
2022/11/14 12:18:48;;;;;;;13.18;7.20;;;11.50;99.90;;;;;;5029314;28;20451;-74
2022/11/14 12:21:54;;;;;;;10.98;6.22;;;11.60;99.90;;;;;;5029817;28;20351;-72
2022/11/14 12:24:48;;;;;;;17.17;6.13;;;12.00;99.90;;;;;;5028027;28;20064;-75
2022/11/14 12:27:19;;;;;;;9.50;6.25;;;12.60;99.90;;;;;;5026855;28;20028;-74
2022/11/14 12:30:17;;;;;;;10.52;6.45;;;12.80;99.90;;;;;;5029443;28;20481;-75
2022/11/14 12:32:54;;;;;;;12.43;6.93;;;13.10;99.90;;;;;;5028672;28;20813;-74
2022/11/14 12:35:22;;;;;;;11.75;7.03;;;13.00;99.90;;;;;;5032240;28;20089;-74
2022/11/14 12:37:50;;;;;;;16.42;6.82;;;12.90;99.90;;;;;;5031881;28;20045;-72
2022/11/14 12:40:27;;;;;;;14.52;8.02;;;12.80;99.90;;;;;;5035069;28;20450;-72
2022/11/14 12:42:54;;;;;;;13.02;6.72;;;12.70;99.90;;;;;;5034189;28;20035;-73
2022/11/14 12:45:35;;;;;;;12.40;7.20;;;12.60;99.90;;;;;;5026128;28;20089;-74
2022/11/14 12:48:16;;;;;;;14.02;7.05;;;12.50;99.90;;;;;;5028826;28;20100;-74
2022/11/14 12:50:42;;;;;;;10.43;6.95;;;12.60;99.90;;;;;;5027629;28;20516;-75
2022/11/14 12:53:35;;;;;;;13.82;6.68;;;12.60;99.90;;;;;;5031340;28;20518;-75